Time;durP1;ratioP1;P1;durP2;ratioP2;P2;SDS_P1;SDS_P2;PMS_P1;PMS_P2;Temp;Humidity;BMP_temperature;BMP_pressure;BME280_temperature;BME280_humidity;BME280_pressure;Samples;Min_cycle;Max_cycle;Signal;HPM_P1;HPM_P2
2023/04/26 05:01:16;;;;;;;;;3.33;3.33;;;;;11.52;56.52;11423.69;5556130;23;46017;-80
2023/04/26 05:03:41;;;;;;;;;2.67;1.67;;;;;11.46;56.70;11756.28;5018525;28;46980;-80
2023/04/26 05:06:06;;;;;;;;;2.00;2.00;;;;;11.62;56.15;11760.19;5016519;28;45842;-79
2023/04/26 05:08:32;;;;;;;;;2.00;2.00;;;;;11.62;56.35;11760.19;5017823;28;45515;-80
2023/04/26 05:10:58;;;;;;;;;3.00;3.00;;;;;11.08;56.10;12081.06;5017299;28;45551;-80
2023/04/26 05:13:23;;;;;;;;;3.00;3.00;;;;;11.62;56.18;12094.34;5006267;28;45538;-80
2023/04/26 05:15:48;;;;;;;;;2.00;2.00;;;;;11.28;56.09;12085.94;5013868;28;49887;-80
2023/04/26 05:18:14;;;;;;;;;4.00;2.33;;;;;11.64;56.14;11760.56;4999833;28;49108;-81
2023/04/26 05:20:40;;;;;;;;;2.00;2.00;;;;;11.59;55.99;11759.34;4998583;28;45735;-81
2023/04/26 05:23:05;;;;;;;;;3.33;2.33;;;;;11.59;56.03;11759.47;4998407;28;46954;-81
2023/04/26 05:25:30;;;;;;;;;3.33;3.00;;;;;11.64;56.14;11760.44;4998332;28;45501;-81
2023/04/26 05:27:56;;;;;;;;;3.67;2.67;;;;;11.63;56.24;11760.31;4998429;28;45481;-81
2023/04/26 05:30:21;;;;;;;;;3.00;3.00;;;;;11.65;56.07;11760.69;5016626;28;45386;-81
2023/04/26 05:32:46;;;;;;;;;5.00;3.00;;;;;11.64;56.35;11760.56;5030921;28;52803;-80
2023/04/26 05:35:12;;;;;;;;;3.00;3.00;;;;;11.53;56.42;12092.09;5037684;28;45646;-81
2023/04/26 05:37:38;;;;;;;;;4.00;4.00;;;;;11.40;56.47;12088.81;5038089;28;45355;-81
2023/04/26 05:40:05;;;;;;;;;5.00;5.00;;;;;11.64;55.96;12094.72;5038322;28;45522;-81
2023/04/26 05:42:30;;;;;;;;;4.33;3.00;;;;;11.65;56.48;12094.84;5037784;28;46017;-81
2023/04/26 05:44:57;;;;;;;;;5.00;3.00;;;;;11.59;56.30;12093.59;5037797;28;45427;-81
2023/04/26 05:47:23;;;;;;;;;2.00;2.00;;;;;11.46;56.35;12090.19;5037995;28;45559;-81
2023/04/26 05:49:48;;;;;;;;;3.00;3.00;;;;;11.69;56.31;11761.78;5036453;28;45541;-81
2023/04/26 05:52:13;;;;;;;;;7.33;5.00;;;;;11.71;56.04;11762.16;5037470;28;52315;-81
2023/04/26 05:54:39;;;;;;;;;6.00;4.67;;;;;11.71;56.14;11762.16;5037545;28;45758;-81
2023/04/26 05:57:04;;;;;;;;;5.00;5.00;;;;;11.71;56.32;11762.28;5027532;28;49963;-81
2023/04/26 05:59:31;;;;;;;;;2.00;2.00;;;;;11.39;56.25;11754.56;5014066;28;45731;-81
2023/04/26 06:01:57;;;;;;;;;5.00;5.00;;;;;11.72;56.01;11762.53;4997524;28;46929;-81
2023/04/26 06:04:23;;;;;;;;;5.00;4.33;;;;;11.73;56.15;11762.63;5006368;28;45447;-81
2023/04/26 06:06:48;;;;;;;;;5.33;5.33;;;;;11.73;56.28;11762.78;5018252;28;45793;-81
2023/04/26 06:09:14;;;;;;;;;6.00;6.00;;;;;11.52;55.81;11757.63;5017945;28;45451;-81
2023/04/26 06:11:39;;;;;;;;;9.00;6.00;;;;;11.49;56.29;11757.00;5016770;28;45477;-81
2023/04/26 06:14:05;;;;;;;;;4.67;4.67;;;;;11.65;56.16;11760.81;5017180;28;45424;-81
2023/04/26 06:16:30;;;;;;;;;5.67;5.67;;;;;11.75;56.35;11763.25;5017100;28;47592;-81
2023/04/26 06:18:55;;;;;;;;;4.00;4.00;;;;;11.53;56.35;11758.00;5017613;28;45823;-81
2023/04/26 06:21:21;;;;;;;;;4.67;4.67;;;;;11.66;56.29;11426.78;5017090;28;45948;-81
2023/04/26 06:23:46;;;;;;;;;7.67;6.00;;;;;11.77;56.25;11429.56;5017372;28;45503;-80
2023/04/26 06:26:11;;;;;;;;;6.00;6.00;;;;;11.78;56.41;11429.78;5017256;28;45474;-81
2023/04/26 06:28:37;;;;;;;;;3.33;3.33;;;;;11.82;56.44;11096.44;5017528;28;45637;-81
2023/04/26 06:31:02;;;;;;;;;3.00;3.00;;;;;11.82;56.38;10762.28;5017168;28;45632;-81
2023/04/26 06:33:27;;;;;;;;;5.00;5.00;;;;;11.91;56.42;10764.22;5016726;28;45808;-80
2023/04/26 06:35:53;;;;;;;;;4.33;4.33;;;;;11.66;56.51;10424.59;5017069;28;49268;-81
2023/04/26 06:38:18;;;;;;;;;6.00;5.00;;;;;11.76;56.37;10092.84;5017341;28;45486;-80
2023/04/26 06:40:43;;;;;;;;;5.00;5.00;;;;;11.75;56.33;10092.63;5021687;28;46233;-81
2023/04/26 06:43:09;;;;;;;;;7.33;5.67;;;;;11.71;56.11;9757.75;5017021;28;45616;-81
2023/04/26 06:45:35;;;;;;;;;6.33;5.00;;;;;12.09;56.55;9765.50;5015481;28;48570;-81
2023/04/26 06:48:00;;;;;;;;;4.00;4.00;;;;;12.07;56.51;9430.88;5016732;28;45528;-80
2023/04/26 06:50:26;;;;;;;;;7.67;5.33;;;;;12.08;56.51;9431.09;5016852;28;46003;-81
2023/04/26 06:52:52;;;;;;;;;5.33;5.00;;;;;12.19;56.25;9433.47;5016855;28;45486;-81
2023/04/26 06:55:17;;;;;;;;;5.00;5.00;;;;;12.23;56.12;9099.97;5016764;28;45837;-81
2023/04/26 06:57:43;;;;;;;;;7.33;6.00;;;;;11.82;56.22;9092.00;5030632;28;45463;-81
2023/04/26 07:00:09;;;;;;;;;5.00;4.67;;;;;12.11;56.29;8763.41;5036643;28;45383;-81
2023/04/26 07:02:34;;;;;;;;;5.33;5.33;;;;;11.87;56.47;8758.91;5036104;28;45427;-81
2023/04/26 07:04:59;;;;;;;;;9.00;6.00;;;;;12.39;56.48;8434.53;5018928;28;45470;-80
2023/04/26 07:07:25;;;;;;;;;5.00;5.00;;;;;12.46;56.29;8101.59;5009855;28;45473;-80
2023/04/26 07:09:51;;;;;;;;;5.00;5.00;;;;;12.43;56.02;8101.13;5012462;28;46892;-81
2023/04/26 07:12:17;;;;;;;;;7.33;7.33;;;;;12.51;56.29;7768.13;5009790;28;45495;-81
2023/04/26 07:14:42;;;;;;;;;8.67;7.67;;;;;12.35;56.38;7431.22;5013928;28;46197;-80
2023/04/26 07:17:08;;;;;;;;;8.00;6.33;;;;;12.66;56.34;7102.28;5012757;28;45552;-81
2023/04/26 07:19:34;;;;;;;;;7.33;6.00;;;;;12.67;56.26;7102.47;5015217;28;45538;-81
2023/04/26 07:22:00;;;;;;;;;7.00;6.67;;;;;12.77;56.08;7104.06;4997143;28;45390;-80
2023/04/26 07:24:25;;;;;;;;;6.67;6.33;;;;;12.82;55.96;6770.56;5012642;28;45787;-80
2023/04/26 07:26:51;;;;;;;;;5.67;5.67;;;;;12.88;56.03;6437.09;5012815;28;45751;-80
2023/04/26 07:29:17;;;;;;;;;7.67;7.67;;;;;12.93;55.75;6437.81;5008691;28;47098;-80
2023/04/26 07:31:43;;;;;;;;;8.33;6.33;;;;;12.97;55.72;6438.44;5012666;28;45569;-80
2023/04/26 07:34:08;;;;;;;;;6.33;5.67;;;;;12.79;55.80;6435.69;5016190;28;45661;-80
2023/04/26 07:36:33;;;;;;;;;5.67;5.67;;;;;13.03;55.97;6104.97;5016599;28;45482;-81
2023/04/26 07:38:59;;;;;;;;;7.00;7.00;;;;;13.06;55.97;6105.50;5016540;28;47759;-81
2023/04/26 07:41:24;;;;;;;;;6.33;6.33;;;;;13.10;55.79;5771.63;5016120;28;52271;-80
2023/04/26 07:43:49;;;;;;;;;5.67;5.67;;;;;13.16;55.76;5772.44;5016307;28;45736;-80
2023/04/26 07:46:15;;;;;;;;;8.67;7.67;;;;;13.20;55.94;5438.66;5016225;28;45809;-81
2023/04/26 07:48:40;;;;;;;;;7.67;7.33;;;;;13.06;55.99;5436.66;5023349;28;45433;-81
2023/04/26 07:51:10;;;;;;;;;6.33;2.67;;;;;12.66;55.69;5431.25;5015981;28;45451;-81
2023/04/26 07:53:35;;;;;;;;;7.33;5.00;;;;;13.36;55.89;4771.88;5016088;28;45709;-80
2023/04/26 07:56:03;;;;;;;;;7.67;5.00;;;;;13.45;55.86;4438.50;5016182;28;45446;-81
2023/04/26 07:58:28;;;;;;;;;7.00;5.67;;;;;13.52;55.89;4439.34;4994504;28;46340;-81
2023/04/26 08:00:54;;;;;;;;;8.67;7.67;;;;;13.28;55.86;4102.06;5010515;28;46004;-81
2023/04/26 08:03:19;;;;;;;;;7.33;6.00;;;;;13.36;55.68;4102.97;5014333;28;46196;-79
2023/04/26 08:05:45;;;;;;;;;8.33;7.67;;;;;13.59;55.80;3771.13;5016404;28;45538;-79
2023/04/26 08:08:11;;;;;;;;;8.33;7.00;;;;;13.61;55.58;3436.88;5015541;28;46793;-79
2023/04/26 08:10:40;;;;;;;;;5.67;5.67;;;;;13.47;55.78;3101.03;5015036;28;45451;-79
2023/04/26 08:13:05;;;;;;;;;10.67;8.33;;;;;13.36;55.45;3434.22;5018294;28;45423;-79
2023/04/26 08:15:31;;;;;;;;;8.00;6.33;;;;;13.77;55.21;3773.19;5015494;28;45376;-78
2023/04/26 08:17:56;;;;;;;;;8.67;7.67;;;;;13.71;55.32;3438.00;5017452;28;46124;-80
2023/04/26 08:20:22;;;;;;;;;7.00;7.00;;;;;13.50;55.00;3770.16;5010514;28;45384;-80
2023/04/26 08:22:47;;;;;;;;;7.00;7.00;;;;;13.95;55.08;3440.50;5015923;28;45724;-79
2023/04/26 08:25:14;;;;;;;;;7.67;7.00;;;;;14.04;55.03;3776.16;5015965;28;45655;-78
2023/04/26 08:27:40;;;;;;;;;8.00;8.00;;;;;14.08;55.35;3441.88;5015414;28;45519;-78
2023/04/26 08:30:06;;;;;;;;;8.00;8.00;;;;;13.71;55.16;3103.44;5014912;28;45463;-78
2023/04/26 08:32:34;;;;;;;;;8.33;7.33;;;;;14.10;54.96;2772.66;5015722;28;45476;-85
2023/04/26 08:34:59;;;;;;;;;8.00;7.00;;;;;14.17;54.72;2773.31;5014706;28;45771;-86
2023/04/26 08:37:25;;;;;;;;;7.67;5.67;;;;;14.44;55.01;2441.06;5014672;28;45428;-86
2023/04/26 08:48:16;;;;;;;;;6.67;6.67;;;;;14.70;54.71;1773.53;5551221;22;46509;-84
2023/04/26 08:54:39;;;;;;;;;5.67;5.67;;;;;14.39;53.98;2105.81;5575069;22;45418;-85
2023/04/26 08:57:06;;;;;;;;;4.00;4.00;;;;;14.80;54.42;2444.34;5282676;22;46702;-79
2023/04/26 08:59:43;;;;;;;;;6.67;6.67;;;;;14.89;54.30;2445.13;4986482;28;45427;-79
2023/04/26 09:02:10;;;;;;;;;6.33;6.33;;;;;14.89;54.31;2110.09;4994345;28;45565;-82
2023/04/26 09:04:36;;;;;;;;;6.33;6.33;;;;;14.89;54.43;2110.09;4994520;28;45468;-81
2023/04/26 09:07:03;;;;;;;;;4.67;4.67;;;;;14.94;54.68;1775.47;4995182;28;45467;-82
2023/04/26 09:09:38;;;;;;;;;10.67;6.33;;;;;14.82;53.84;1439.50;4980359;28;47896;-81
2023/04/26 09:12:04;;;;;;;;;5.00;5.00;;;;;15.34;54.05;1108.16;5001279;28;45570;-80
2023/04/26 09:14:30;;;;;;;;;6.00;4.00;;;;;15.47;53.67;1109.09;5004339;28;45489;-80
2023/04/26 09:16:56;;;;;;;;;6.33;6.33;;;;;15.60;53.14;1445.38;5017586;28;45574;-80
2023/04/26 09:19:54;;;;;;;;;8.33;5.00;;;;;15.68;53.55;775.16;4998021;28;47128;-80
2023/04/26 09:22:34;;;;;;;;;5.00;4.67;;;;;15.97;52.98;777.00;4916492;28;45467;-80
2023/04/26 09:25:02;;;;;;;;;5.00;5.00;;;;;16.20;53.23;-228.25;4922401;28;45870;-81
2023/04/26 09:27:32;;;;;;;;;4.67;4.67;;;;;16.40;52.36;1451.34;4918789;28;45596;-81
2023/04/26 09:30:04;;;;;;;;;3.33;3.33;;;;;16.52;51.84;1788.09;4917783;28;46372;-82
2023/04/26 09:32:47;;;;;;;;;8.33;8.33;;;;;16.67;51.33;2461.28;4917862;28;45543;-82
2023/04/26 09:35:31;;;;;;;;;5.00;5.00;;;;;16.73;51.47;3806.34;4917212;28;45511;-83
2023/04/26 09:38:13;;;;;;;;;5.00;5.00;;;;;16.66;50.11;5486.59;4917469;28;45723;-85
2023/04/26 09:40:39;;;;;;;;;4.00;4.00;;;;;17.04;50.44;5155.41;4917628;28;47180;-85
2023/04/26 09:43:10;;;;;;;;;6.00;6.00;;;;;17.33;50.28;4149.56;4917308;28;45466;-85
2023/04/26 09:45:45;;;;;;;;;5.00;3.67;;;;;17.42;50.41;2804.56;5107519;22;45488;-85
2023/04/26 09:48:29;;;;;;;;;6.00;4.67;;;;;17.81;49.47;3818.50;4981404;28;45590;-85
2023/04/26 09:51:09;;;;;;;;;5.00;4.00;;;;;18.11;48.98;4832.81;4977497;28;46727;-84
2023/04/26 09:53:38;;;;;;;;;5.00;4.00;;;;;18.56;48.20;9225.50;4978025;28;45898;-85
2023/04/26 09:56:20;;;;;;;;;4.33;4.00;;;;;18.84;43.98;17684.91;4989087;28;45489;-85
2023/04/26 09:58:46;;;;;;;;;4.33;3.67;;;;;19.13;43.72;25492.19;4978173;28;45482;-85
2023/04/26 10:01:13;;;;;;;;;4.33;3.67;;;;;19.38;44.90;30036.25;4977022;28;45483;-83
2023/04/26 10:03:40;;;;;;;;;4.00;4.00;;;;;19.48;45.52;26770.88;4977154;28;45934;-83
2023/04/26 10:06:06;;;;;;;;;3.00;3.00;;;;;20.00;45.93;24616.25;4975998;28;45473;-82
2023/04/26 10:08:32;;;;;;;;;5.00;5.00;;;;;20.33;46.13;22488.50;4988962;28;45458;-83
2023/04/26 10:11:00;;;;;;;;;3.50;3.50;;;;;20.91;45.76;20812.25;4976762;28;46329;-83
2023/04/26 10:13:26;;;;;;;;;6.00;5.00;;;;;21.20;44.91;21163.78;4976616;28;45459;-84
2023/04/26 10:15:53;;;;;;;;;3.25;3.25;;;;;21.63;43.90;29460.88;4977850;28;45621;-84
2023/04/26 10:18:18;;;;;;;;;5.25;4.25;;;;;21.93;42.12;43411.88;4979824;28;45388;-85
2023/04/26 10:20:47;;;;;;;;;4.25;3.25;;;;;22.20;41.80;47435.09;4977382;28;49699;-85
2023/04/26 10:23:20;;;;;;;;;2.75;2.75;;;;;22.30;42.44;48204.50;4977704;28;45367;-86
2023/04/26 10:25:46;;;;;;;;;9.00;7.00;;;;;22.14;38.46;61923.09;4977006;28;45610;-89
2023/04/26 10:28:11;;;;;;;;;3.00;3.00;;;;;22.08;40.13;62233.94;4977325;28;45534;-90
2023/04/26 10:33:36;;;;;;;;;3.00;3.00;;;;;21.74;40.64;63200.31;5013682;23;45545;-88
2023/04/26 10:36:12;;;;;;;;;2.00;2.00;;;;;21.52;42.14;62719.56;5010173;28;45554;-86
2023/04/26 10:38:39;;;;;;;;;3.00;2.25;;;;;21.24;39.87;64498.50;5012832;28;45527;-89
2023/04/26 10:41:30;;;;;;;;;5.75;2.75;;;;;21.04;41.01;64519.19;5011921;28;46038;-89
2023/04/26 10:44:40;;;;;;;;;1.00;1.00;;;;;20.46;37.74;66410.06;5009250;28;45848;-88
2023/04/26 10:47:20;;;;;;;;;3.00;3.00;;;;;20.56;41.04;66112.81;4997111;28;45510;-87
2023/04/26 10:49:47;;;;;;;;;2.00;2.00;;;;;20.43;40.63;66530.13;5016842;28;45725;-87
2023/04/26 10:52:21;;;;;;;;;2.00;2.00;;;;;20.13;41.51;66252.09;5016334;28;45453;-87
2023/04/26 10:54:53;;;;;;;;;3.75;2.50;;;;;19.91;42.01;65801.09;4986918;28;45792;-86
2023/04/26 10:57:20;;;;;;;;;2.00;2.00;;;;;19.69;41.56;65969.66;5016578;28;45908;-87
2023/04/26 11:02:16;;;;;;;;;2.25;2.00;;;;;19.94;42.23;66175.19;5018771;22;74335;-89
2023/04/26 11:04:51;;;;;;;;;2.00;2.00;;;;;19.85;42.53;65867.22;4991020;28;45813;-89
2023/04/26 11:07:35;;;;;;;;;3.00;3.00;;;;;19.51;42.87;65668.31;5013614;28;45502;-86
2023/04/26 11:10:01;;;;;;;;;2.00;2.00;;;;;19.58;42.47;65837.63;5016467;28;45608;-86
2023/04/26 11:12:26;;;;;;;;;3.00;1.00;;;;;19.48;41.57;66123.75;5012929;28;55756;-86
2023/04/26 11:14:52;;;;;;;;;3.00;2.00;;;;;19.42;41.51;66242.28;5016226;28;46225;-86
2023/04/26 11:17:18;;;;;;;;;2.00;2.00;;;;;19.43;42.07;66281.50;5016462;28;45402;-86
2023/04/26 11:19:46;;;;;;;;;1.00;1.00;;;;;19.16;41.18;66730.72;4998692;28;45551;-89
2023/04/26 11:22:11;;;;;;;;;2.33;2.33;;;;;18.95;41.72;66693.72;5015879;28;46074;-85
2023/04/26 11:24:37;;;;;;;;;3.00;3.00;;;;;19.04;42.16;66553.50;5010784;28;45462;-86
2023/04/26 11:27:51;;;;;;;;;3.50;2.75;;;;;17.97;41.47;66679.38;5018476;28;45412;-85
2023/04/26 11:30:20;;;;;;;;;2.00;2.00;;;;;18.83;42.37;66675.09;4952074;28;45495;-84
2023/04/26 11:32:45;;;;;;;;;1.00;1.00;;;;;18.95;42.65;66611.25;4954620;28;46350;-82
2023/04/26 11:35:10;;;;;;;;;2.00;2.00;;;;;18.91;42.13;66710.50;4954368;28;53178;-84
2023/04/26 11:37:36;;;;;;;;;2.00;2.00;;;;;18.86;41.88;66882.06;4927987;28;45495;-85
2023/04/26 11:40:01;;;;;;;;;2.33;2.00;;;;;18.82;42.45;66671.25;4934978;28;45733;-85
2023/04/26 11:42:27;;;;;;;;;1.67;1.67;;;;;18.48;42.22;66753.66;4937726;28;47582;-85
2023/04/26 11:44:53;;;;;;;;;1.00;1.00;;;;;18.76;43.27;66504.28;4943757;28;45524;-85
2023/04/26 11:47:18;;;;;;;;;2.00;2.00;;;;;18.73;42.40;66698.94;4936314;28;45604;-84
2023/04/26 11:49:45;;;;;;;;;2.00;2.00;;;;;18.58;42.43;66593.31;4936549;28;45592;-83
2023/04/26 11:52:11;;;;;;;;;3.00;3.00;;;;;18.80;42.73;66634.16;4934621;28;46404;-82
2023/04/26 11:54:37;;;;;;;;;1.00;1.00;;;;;18.55;42.49;66652.00;4935177;28;46010;-82
2023/04/26 11:57:14;;;;;;;;;2.00;2.00;;;;;18.63;42.53;66593.13;4920697;28;45888;-92
2023/04/26 11:59:39;;;;;;;;;2.67;1.67;;;;;18.53;43.05;66507.84;4936857;28;45841;-91
2023/04/26 12:02:08;;;;;;;;;2.00;2.00;;;;;18.82;42.49;66641.22;5013349;28;45986;-92
2023/04/26 12:04:34;;;;;;;;;2.00;2.00;;;;;18.84;42.13;66705.13;5007908;28;45431;-91
2023/04/26 12:07:00;;;;;;;;;2.00;2.00;;;;;18.85;42.06;66741.09;5006350;28;45436;-87
2023/04/26 12:09:27;;;;;;;;;2.00;1.00;;;;;18.50;41.83;66857.09;5004370;28;45702;-87
2023/04/26 12:12:03;;;;;;;;;1.00;1.00;;;;;18.85;41.90;66856.81;5015171;28;46275;-89
2023/04/26 12:14:38;;;;;;;;;3.00;3.00;;;;;18.83;42.20;66894.09;5012252;28;45449;-89
2023/04/26 12:17:05;;;;;;;;;2.67;2.00;;;;;18.81;41.21;67026.25;5015451;28;45408;-89
2023/04/26 12:19:37;;;;;;;;;2.00;2.00;;;;;18.46;42.05;66924.75;5013706;28;45501;-93
2023/04/26 12:22:04;;;;;;;;;2.33;2.33;;;;;18.69;42.48;66897.81;5006671;28;46251;-89
2023/04/26 12:24:35;;;;;;;;;2.00;2.00;;;;;18.52;42.27;66899.56;5008767;28;45580;-92
2023/04/26 12:27:01;;;;;;;;;2.00;2.00;;;;;18.60;41.60;66993.91;5008514;28;46040;-92
2023/04/26 12:29:29;;;;;;;;;3.00;3.00;;;;;18.45;42.24;66950.34;5013290;28;45419;-91
2023/04/26 12:31:55;;;;;;;;;1.50;1.50;;;;;18.64;42.39;66963.72;5013504;28;47083;-91
2023/04/26 12:34:20;;;;;;;;;2.00;2.00;;;;;18.62;42.51;66967.34;5014837;28;45401;-91
2023/04/26 12:36:46;;;;;;;;;1.67;1.00;;;;;18.63;42.65;66890.28;4995020;28;45416;-91
2023/04/26 12:39:13;;;;;;;;;2.00;1.00;;;;;18.37;43.00;66860.81;5015895;28;45337;-91
2023/04/26 12:41:39;;;;;;;;;1.00;1.00;;;;;18.45;42.96;66843.28;5014377;28;45581;-91
2023/04/26 12:44:05;;;;;;;;;2.67;1.33;;;;;18.60;42.26;66911.50;5014763;28;45503;-90
2023/04/26 12:46:31;;;;;;;;;2.00;2.00;;;;;18.57;42.53;66934.78;5010703;28;45755;-91
2023/04/26 12:48:56;;;;;;;;;3.75;2.00;;;;;18.19;42.53;66961.56;5002637;28;45827;-90
2023/04/26 12:51:22;;;;;;;;;1.33;1.33;;;;;18.48;42.52;67031.44;4991390;28;47083;-90
2023/04/26 12:53:47;;;;;;;;;1.25;1.25;;;;;;;;5018412;28;46161;-91
2023/04/26 12:56:13;;;;;;;;;2.00;2.00;;;;;18.43;42.93;66916.50;5016199;28;45482;-90
2023/04/26 12:58:39;;;;;;;;;2.33;2.00;;;;;18.29;42.80;66924.97;5016632;28;45591;-90
2023/04/26 13:01:04;;;;;;;;;2.33;2.33;;;;;18.27;43.42;66510.63;5017402;28;46420;-91
2023/04/26 13:03:30;;;;;;;;;3.33;2.67;;;;;18.39;45.94;64931.53;5014907;28;45731;-90
2023/04/26 13:05:55;;;;;;;;;5.00;2.67;;;;;18.33;47.04;62209.56;5019148;28;45464;-90
2023/04/26 13:08:21;;;;;;;;;2.33;2.33;;;;;18.11;46.65;62113.69;5020237;28;45460;-92
2023/04/26 13:10:46;;;;;;;;;1.00;1.00;;;;;18.23;46.78;62014.38;5011758;28;47020;-91
2023/04/26 13:13:12;;;;;;;;;1.67;1.67;;;;;17.96;46.99;61641.38;5018294;28;48324;-92
2023/04/26 13:15:37;;;;;;;;;4.67;2.67;;;;;18.14;46.77;61790.97;5018397;28;45509;-90
2023/04/26 13:18:03;;;;;;;;;3.33;2.00;;;;;18.11;47.88;60020.19;5018646;28;45367;-90
2023/04/26 13:20:29;;;;;;;;;1.00;1.00;;;;;18.04;47.96;60007.03;5016135;28;47144;-91
2023/04/26 13:22:55;;;;;;;;;1.33;1.33;;;;;17.97;48.15;58819.97;5016884;28;45498;-89
2023/04/26 13:25:26;;;;;;;;;4.67;3.00;;;;;18.18;48.31;57669.09;5016679;28;45634;-96
2023/04/26 13:27:58;;;;;;;;;2.00;2.00;;;;;18.32;48.23;57371.28;5001005;28;45505;-89
2023/04/26 13:30:23;;;;;;;;;0.50;0.50;;;;;18.37;48.17;57253.00;5013413;28;45371;-90
2023/04/26 13:32:48;;;;;;;;;2.00;1.50;;;;;18.42;48.53;57337.56;5006111;28;45441;-89
2023/04/26 13:35:14;;;;;;;;;1.33;1.33;;;;;18.46;47.92;57860.06;5017020;28;46655;-91
2023/04/26 13:37:40;;;;;;;;;2.00;2.00;;;;;18.38;47.57;58391.38;5017730;28;45511;-90
2023/04/26 13:40:06;;;;;;;;;5.00;2.00;;;;;18.23;47.42;58611.59;5017836;28;46319;-91
2023/04/26 13:42:32;;;;;;;;;1.00;1.00;;;;;18.33;48.04;57863.50;5009085;28;45577;-96
2023/04/26 13:44:57;;;;;;;;;3.00;3.00;;;;;18.60;48.13;57713.38;5015347;28;45526;-91
2023/04/26 13:47:22;;;;;;;;;1.00;1.00;;;;;18.53;47.61;57685.50;5015732;28;46519;-90
2023/04/26 13:49:47;;;;;;;;;1.00;1.00;;;;;18.66;48.20;57585.34;5015988;28;48730;-90
2023/04/26 13:52:13;;;;;;;;;3.00;1.67;;;;;18.66;47.71;57532.44;5017509;28;45516;-92
2023/04/26 13:54:41;;;;;;;;;1.00;1.00;;;;;18.52;46.77;58279.56;5015781;28;50098;-90
2023/04/26 13:57:06;;;;;;;;;2.00;1.00;;;;;18.49;47.21;58364.63;5016197;28;45530;-89
2023/04/26 13:59:32;;;;;;;;;1.33;1.33;;;;;18.44;47.57;58079.16;4995975;28;46064;-89
2023/04/26 14:01:57;;;;;;;;;2.33;2.33;;;;;18.63;47.81;57914.03;5007672;28;45514;-88
2023/04/26 14:04:23;;;;;;;;;3.00;2.33;;;;;18.41;48.15;57569.34;5013189;28;45405;-88
2023/04/26 14:06:49;;;;;;;;;2.00;1.00;;;;;18.46;48.00;57629.91;5017006;28;45538;-90
2023/04/26 14:09:15;;;;;;;;;1.33;1.33;;;;;18.56;47.88;57725.88;5010399;28;45377;-92
2023/04/26 14:11:40;;;;;;;;;2.00;2.00;;;;;18.63;48.10;57774.66;5014806;28;45552;-92
2023/04/26 14:14:05;;;;;;;;;3.33;2.00;;;;;18.48;47.33;57952.88;5016575;28;45387;-91
2023/04/26 14:16:31;;;;;;;;;2.33;2.33;;;;;18.62;46.70;58746.47;5007229;28;45308;-92
2023/04/26 14:18:56;;;;;;;;;1.67;1.67;;;;;18.65;46.62;58901.84;5005213;28;46307;-94
2023/04/26 14:21:22;;;;;;;;;0.00;0.00;;;;;18.45;46.47;58990.88;5017208;28;45380;-92
2023/04/26 14:23:47;;;;;;;;;1.00;1.00;;;;;18.65;46.27;59339.53;5017419;28;45716;-90
2023/04/26 14:26:12;;;;;;;;;1.67;1.67;;;;;18.34;46.97;59039.38;5012906;28;45727;-90
2023/04/26 14:28:39;;;;;;;;;1.33;1.33;;;;;18.46;46.98;59285.72;5018130;28;45952;-91
2023/04/26 14:31:05;;;;;;;;;1.00;1.00;;;;;18.49;46.77;59195.81;5012168;28;45459;-89
2023/04/26 14:33:31;;;;;;;;;2.00;2.00;;;;;18.44;46.81;59177.34;4997092;28;45797;-92
2023/04/26 14:35:56;;;;;;;;;1.00;1.00;;;;;18.41;47.12;59000.66;4998224;28;45523;-91
2023/04/26 14:38:21;;;;;;;;;2.33;2.00;;;;;18.70;46.66;59056.56;5011944;28;46239;-91
2023/04/26 14:40:47;;;;;;;;;3.00;2.00;;;;;18.48;45.95;59961.03;5016701;28;45444;-92
2023/04/26 14:43:12;;;;;;;;;2.00;2.00;;;;;18.42;46.27;59909.88;5016199;28;45427;-92
2023/04/26 14:45:41;;;;;;;;;2.00;2.00;;;;;18.64;46.73;59932.25;5017015;28;45412;-92
2023/04/26 14:48:06;;;;;;;;;3.00;3.00;;;;;18.69;46.54;59731.66;5016708;28;47736;-92
2023/04/26 14:50:32;;;;;;;;;2.33;2.33;;;;;18.37;46.95;59763.09;5016556;28;45436;-94
2023/04/26 14:52:57;;;;;;;;;3.00;2.00;;;;;18.72;46.77;59662.59;5015877;28;45860;-91
2023/04/26 14:55:22;;;;;;;;;1.00;1.00;;;;;18.46;46.44;59616.97;5024980;28;45489;-96
2023/04/26 14:57:50;;;;;;;;;1.00;1.00;;;;;18.61;46.57;59725.50;5023698;28;45326;-96
2023/04/26 15:00:15;;;;;;;;;2.67;2.00;;;;;18.62;46.46;59951.53;5018324;28;45465;-92
2023/04/26 15:02:50;;;;;;;;;1.33;1.33;;;;;18.37;46.21;60374.31;5017050;28;45380;-96
2023/04/26 15:05:26;;;;;;;;;3.67;2.00;;;;;18.18;46.19;60617.19;5011671;28;45427;-96
2023/04/26 15:07:52;;;;;;;;;2.00;2.00;;;;;17.25;46.25;60468.16;5007233;28;45625;-96
2023/04/26 15:10:17;;;;;;;;;3.33;1.00;;;;;18.46;46.90;60485.81;5026452;28;45361;-96
2023/04/26 15:12:43;;;;;;;;;1.67;1.67;;;;;17.21;46.55;60347.16;5022455;28;45381;-96
2023/04/26 15:15:16;;;;;;;;;2.00;1.00;;;;;17.51;47.13;60431.44;5027227;28;45307;-95
2023/04/26 15:17:48;;;;;;;;;3.00;2.00;;;;;17.02;46.60;60396.53;5016154;28;45787;-91
2023/04/26 15:20:14;;;;;;;;;2.00;2.00;;;;;17.86;46.75;60408.41;4996760;28;45653;-87
2023/04/26 15:22:40;;;;;;;;;2.00;2.00;;;;;17.21;47.03;60352.47;4990402;28;45580;-92
2023/04/26 15:25:07;;;;;;;;;2.00;2.00;;;;;17.47;46.83;60512.59;5002610;28;45655;-90
2023/04/26 15:30:20;;;;;;;;;2.00;2.00;;;;;17.40;46.56;60561.28;5014665;28;45585;-90
2023/04/26 15:32:59;;;;;;;;;1.67;1.67;;;;;17.38;46.61;60916.09;4996593;28;45507;-94
2023/04/26 15:35:28;;;;;;;;;2.00;2.00;;;;;17.95;45.86;61324.63;5009737;28;45688;-92
2023/04/26 15:38:15;;;;;;;;;2.25;1.00;;;;;18.14;46.27;61457.03;5011467;28;45488;-89
2023/04/26 15:40:57;;;;;;;;;1.75;1.75;;;;;17.19;46.01;61518.50;4994964;28;45441;-90
2023/04/26 15:48:33;;;;;;;;;2.00;2.00;;;;;16.96;45.70;61729.13;5013104;22;45843;-89
2023/04/26 15:56:57;;;;;;;;;2.00;1.33;;;;;17.76;45.53;61953.69;5710197;22;45587;-88
2023/04/26 15:59:51;;;;;;;;;1.50;1.50;;;;;17.65;45.84;61921.06;5002755;28;46228;-88
2023/04/26 16:02:26;;;;;;;;;3.00;2.00;;;;;17.17;46.43;61900.47;4996477;28;45545;-89
2023/04/26 16:04:55;;;;;;;;;3.00;3.00;;;;;17.52;45.98;62083.78;4997524;28;45684;-89
2023/04/26 16:07:23;;;;;;;;;1.33;1.33;;;;;17.54;45.96;62085.94;4999031;28;45479;-89
2023/04/26 16:10:21;;;;;;;;;2.00;2.00;;;;;16.48;46.43;61974.50;5015047;28;45625;-89
2023/04/26 16:13:17;;;;;;;;;3.00;1.50;;;;;16.55;45.57;62101.97;5009399;28;45561;-88
2023/04/26 16:16:14;;;;;;;;;4.00;1.00;;;;;16.47;46.06;62261.22;4972533;28;45452;-88
2023/04/26 16:19:26;;;;;;;;;1.75;1.75;;;;;16.53;46.69;62203.75;4975473;28;45400;-89
2023/04/26 16:22:10;;;;;;;;;2.00;2.00;;;;;17.12;46.77;62207.19;5322009;22;45503;-89
2023/04/26 16:25:21;;;;;;;;;;;;;;;;;;;;;
2023/04/26 16:28:04;;;;;;;;;2.50;1.50;;;;;16.68;46.93;62094.13;4997295;28;67870;-89
2023/04/26 16:30:29;;;;;;;;;1.00;1.00;;;;;16.46;46.99;61868.47;4997675;28;45608;-89
2023/04/26 16:33:08;;;;;;;;;1.75;1.75;;;;;17.49;46.84;62057.09;4980640;28;46975;-89
2023/04/26 16:45:22;;;;;;;;;1.50;1.50;;;;;17.64;46.89;62088.16;5505455;22;45525;-89
2023/04/26 16:47:53;;;;;;;;;1.75;1.75;;;;;17.63;46.83;62095.66;5015364;28;45525;-89
2023/04/26 16:50:18;;;;;;;;;1.00;1.00;;;;;16.85;46.69;62063.94;4998990;28;45805;-89
2023/04/26 16:55:19;;;;;;;;;2.00;2.00;;;;;16.87;46.69;62076.75;4924605;22;74040;-89
2023/04/26 17:04:49;;;;;;;;;1.00;1.00;;;;;16.32;47.32;62119.81;4937693;28;45506;-88
2023/04/26 17:07:16;;;;;;;;;2.00;2.00;;;;;16.41;46.65;61999.50;4936882;28;45509;-90
2023/04/26 17:09:44;;;;;;;;;2.00;2.00;;;;;16.98;46.79;62157.94;4920810;28;46030;-89
2023/04/26 17:14:55;;;;;;;;;1.00;1.00;;;;;16.12;47.21;61736.63;5031655;28;46942;-85
2023/04/26 17:17:45;;;;;;;;;1.75;1.00;;;;;17.46;47.34;61843.00;5036241;28;46196;-92
2023/04/26 17:23:32;;;;;;;;;2.00;2.00;;;;;16.23;47.10;62004.63;5034474;28;45653;-89
2023/04/26 17:25:58;;;;;;;;;1.33;1.33;;;;;17.12;47.50;62001.78;5037414;28;45454;-89
2023/04/26 17:28:37;;;;;;;;;4.00;1.33;;;;;16.87;48.63;61231.63;5031976;28;47145;-89
2023/04/26 17:31:03;;;;;;;;;4.00;2.00;;;;;17.05;48.13;60671.63;5021120;28;45475;-93
2023/04/26 17:33:37;;;;;;;;;3.75;2.00;;;;;16.86;48.36;60521.53;5016670;28;45467;-95
2023/04/26 17:36:03;;;;;;;;;1.75;1.75;;;;;16.13;48.55;60483.63;5036294;28;45616;-91
2023/04/26 17:38:48;;;;;;;;;;;;;;;;;;;;;
2023/04/26 17:44:03;;;;;;;;;1.00;1.00;;;;;17.21;49.10;59600.03;5140237;22;45453;-84
2023/04/26 17:46:29;;;;;;;;;3.00;2.00;;;;;16.54;49.13;59519.38;4924129;28;45427;-91